Time;durP1;ratioP1;P1;durP2;ratioP2;P2;SDS_P1;SDS_P2;PMS_P1;PMS_P2;Temp;Humidity;BMP_temperature;BMP_pressure;BME280_temperature;BME280_humidity;BME280_pressure;Samples;Min_cycle;Max_cycle;Signal;HPM_P1;HPM_P2
2023/03/02 00:01:33;;;;;;;32.67;17.63;;;;;;;0.30;100.00;102381.69;5118143;27;20066;-47
2023/03/02 00:04:03;;;;;;;34.92;18.55;;;;;;;0.26;100.00;102384.25;5118023;27;20126;-48
2023/03/02 00:06:34;;;;;;;35.72;18.40;;;;;;;0.24;100.00;102391.19;5114611;27;20391;-48
2023/03/02 00:09:04;;;;;;;37.40;18.75;;;;;;;0.25;100.00;102382.56;5124578;27;20058;-47
2023/03/02 00:11:35;;;;;;;36.30;18.92;;;;;;;0.24;100.00;102386.00;5125953;27;20840;-47
2023/03/02 00:14:05;;;;;;;40.35;21.27;;;;;;;0.30;100.00;102378.22;5124906;27;20034;-51
2023/03/02 00:16:33;;;;;;;40.83;20.85;;;;;;;0.25;100.00;102387.72;5115699;27;20050;-47
2023/03/02 00:19:02;;;;;;;39.65;21.60;;;;;;;0.26;100.00;102379.09;5110383;28;20083;-51
2023/03/02 00:21:30;;;;;;;42.28;21.38;;;;;;;0.21;100.00;102375.66;5127613;27;20051;-47
2023/03/02 00:23:59;;;;;;;41.70;22.10;;;;;;;0.19;100.00;102370.44;5133949;27;20512;-48
2023/03/02 00:26:27;;;;;;;39.92;20.90;;;;;;;0.24;100.00;102373.06;5133783;27;20479;-48
2023/03/02 00:28:55;;;;;;;42.65;22.35;;;;;;;0.18;100.00;102371.31;5132362;27;20059;-46
2023/03/02 00:31:25;;;;;;;43.80;21.63;;;;;;;0.14;100.00;102370.44;5129746;27;20051;-47
2023/03/02 00:33:54;;;;;;;47.60;23.25;;;;;;;0.18;100.00;102371.31;5122994;27;20545;-47
2023/03/02 00:36:23;;;;;;;42.22;22.23;;;;;;;0.12;100.00;102367.00;5110813;27;20036;-52
2023/03/02 00:38:52;;;;;;;48.38;25.08;;;;;;;0.13;100.00;102362.69;5110967;27;20100;-47
2023/03/02 00:41:21;;;;;;;51.00;25.30;;;;;;;0.10;100.00;102362.69;5111915;27;20039;-47
2023/03/02 00:43:50;;;;;;;53.10;25.70;;;;;;;0.12;100.00;102368.69;5116662;27;20074;-49
2023/03/02 00:46:21;;;;;;;50.30;25.33;;;;;;;0.07;100.00;102363.53;5119913;27;20198;-48
2023/03/02 00:48:51;;;;;;;51.97;25.52;;;;;;;0.08;100.00;102365.25;5114928;27;20131;-48
2023/03/02 00:51:19;;;;;;;51.30;24.90;;;;;;;0.08;100.00;102370.44;5110543;28;20070;-48
2023/03/02 00:53:47;;;;;;;50.03;25.10;;;;;;;0.09;100.00;102359.22;5115000;27;20047;-48
2023/03/02 00:56:15;;;;;;;54.60;25.52;;;;;;;0.07;100.00;102368.69;5119135;28;20051;-51
2023/03/02 00:58:43;;;;;;;54.25;25.05;;;;;;;0.04;100.00;102366.13;5119208;28;20050;-52
2023/03/02 01:01:13;;;;;;;49.72;25.05;;;;;;;0.05;100.00;102373.00;5110677;28;20043;-48
2023/03/02 01:03:44;;;;;;;50.58;24.00;;;;;;;0.04;100.00;102373.88;5113251;27;20097;-49
2023/03/02 01:06:17;;;;;;;49.38;23.52;;;;;;;0.04;100.00;102367.81;5111842;28;20054;-52
2023/03/02 01:08:45;;;;;;;52.83;25.27;;;;;;;0.03;100.00;102361.78;5120240;28;20063;-50
2023/03/02 01:11:19;;;;;;;56.33;26.07;;;;;;;0.05;100.00;102359.22;5112781;28;20111;-50
2023/03/02 01:13:48;;;;;;;48.95;23.50;;;;;;;-0.02;100.00;102359.16;5119519;28;20047;-53
2023/03/02 01:16:16;;;;;;;51.95;24.73;;;;;;;-0.04;100.00;102358.31;5121325;28;20061;-49
2023/03/02 01:18:44;;;;;;;54.70;23.73;;;;;;;-0.04;100.00;102360.03;5125306;28;20051;-48
2023/03/02 01:21:15;;;;;;;51.08;25.10;;;;;;;-0.04;100.00;102357.44;5132352;28;20080;-51
2023/03/02 01:23:44;;;;;;;54.83;24.48;;;;;;;-0.01;100.00;102360.06;5129551;27;20047;-51
2023/03/02 01:26:12;;;;;;;50.92;23.63;;;;;;;-0.02;100.00;102363.50;5126058;28;20042;-49
2023/03/02 01:28:40;;;;;;;53.38;23.58;;;;;;;0.03;100.00;102364.38;5114472;28;20142;-50
2023/03/02 01:31:08;;;;;;;47.97;22.30;;;;;;;0.04;100.00;102349.72;5111895;27;20498;-48
2023/03/02 01:33:37;;;;;;;52.25;23.10;;;;;;;0.02;100.00;102360.06;5110553;28;20805;-51
2023/03/02 01:36:06;;;;;;;57.67;25.13;;;;;;;0.03;100.00;102350.56;5115911;28;20043;-51
2023/03/02 01:38:35;;;;;;;53.88;24.25;;;;;;;0.01;100.00;102357.47;5128836;28;20041;-49
2023/03/02 01:41:03;;;;;;;52.83;24.25;;;;;;;0.03;100.00;102347.97;5129861;28;20494;-47
2023/03/02 01:43:31;;;;;;;53.08;25.88;;;;;;;-0.03;100.00;102354.00;5125617;27;20050;-50
2023/03/02 01:46:01;;;;;;;55.88;25.30;;;;;;;-0.06;100.00;102349.69;5131231;27;20096;-47
2023/03/02 01:48:34;;;;;;;54.53;24.83;;;;;;;-0.06;100.00;102343.66;5131079;27;20386;-51
2023/03/02 01:51:04;;;;;;;61.03;26.08;;;;;;;-0.03;100.00;102351.41;5116510;27;20134;-47
2023/03/02 01:53:36;;;;;;;57.55;26.55;;;;;;;-0.04;100.00;102342.78;5121200;27;20528;-50
2023/03/02 01:56:05;;;;;;;55.90;25.30;;;;;;;-0.06;100.00;102341.06;5128026;27;20047;-50
2023/03/02 01:58:37;;;;;;;56.83;25.95;;;;;;;-0.14;100.00;102340.16;5131027;27;20047;-48
2023/03/02 02:01:14;;;;;;;58.25;26.15;;;;;;;-0.14;100.00;102342.75;5134333;27;20592;-49
2023/03/02 02:03:44;;;;;;;56.10;23.88;;;;;;;-0.10;100.00;102341.91;5130889;27;20055;-48
2023/03/02 02:06:19;;;;;;;56.78;24.75;;;;;;;-0.18;100.00;102332.41;5120122;27;20114;-48
2023/03/02 02:08:49;;;;;;;56.50;24.77;;;;;;;-0.23;100.00;102334.13;5129208;27;20055;-50
2023/03/02 02:11:17;;;;;;;53.53;25.15;;;;;;;-0.24;100.00;102332.38;5116884;27;20483;-48
2023/03/02 02:13:46;;;;;;;57.33;25.50;;;;;;;-0.20;100.00;102328.94;5131323;27;20039;-51
2023/03/02 02:16:14;;;;;;;52.83;23.65;;;;;;;-0.23;100.00;102328.06;5125734;27;20457;-50
2023/03/02 02:18:44;;;;;;;52.90;25.17;;;;;;;-0.23;100.00;102326.34;5133090;27;20498;-52
2023/03/02 02:21:13;;;;;;;52.65;25.23;;;;;;;-0.26;100.00;102334.09;5132253;27;20043;-50
2023/03/02 02:23:49;;;;;;;58.35;26.23;;;;;;;-0.28;100.00;102322.88;5132210;27;20070;-52
2023/03/02 02:26:23;;;;;;;52.78;23.48;;;;;;;-0.27;100.00;102315.97;5133527;27;20035;-53
2023/03/02 02:28:57;;;;;;;52.45;24.58;;;;;;;-0.30;100.00;102316.84;5134678;27;20490;-50
2023/03/02 02:31:33;;;;;;;55.20;24.15;;;;;;;-0.33;100.00;102319.41;5132868;27;20066;-50
2023/03/02 02:34:06;;;;;;;52.65;23.92;;;;;;;-0.37;100.00;102320.25;5131877;27;20133;-48
2023/03/02 02:36:39;;;;;;;53.17;23.13;;;;;;;-0.40;100.00;102317.66;5130660;27;20043;-48
2023/03/02 02:39:11;;;;;;;53.53;23.13;;;;;;;-0.38;100.00;102321.13;5132587;27;20104;-48
2023/03/02 02:41:41;;;;;;;;;;;;;;;-0.41;100.00;102318.50;5135214;27;20055;-48
2023/03/02 02:44:14;;;;;;;49.35;21.20;;;;;;;-0.43;100.00;102313.34;5135062;27;20370;-50
2023/03/02 02:46:43;;;;;;;54.05;24.30;;;;;;;-0.48;100.00;102317.63;5110813;28;20123;-51
2023/03/02 02:49:26;;;;;;;51.58;23.98;;;;;;;-0.49;100.00;102315.03;5112010;27;20039;-50
2023/03/02 02:51:54;;;;;;;49.97;23.13;;;;;;;-0.54;100.00;102310.72;5122246;27;20477;-49
2023/03/02 02:54:23;;;;;;;54.10;23.50;;;;;;;-0.55;100.00;102308.13;5114029;27;20070;-49
2023/03/02 02:56:54;;;;;;;48.22;23.08;;;;;;;-0.47;100.00;102308.16;5119744;27;20151;-48
2023/03/02 02:59:25;;;;;;;48.08;23.00;;;;;;;-0.47;100.00;102310.75;5127930;27;20043;-49
2023/03/02 03:01:54;;;;;;;54.85;23.83;;;;;;;-0.58;100.00;102308.97;5116202;27;20031;-49
2023/03/02 03:04:27;;;;;;;52.15;23.00;;;;;;;-0.62;100.00;102309.81;5130009;27;20039;-51
2023/03/02 03:06:56;;;;;;;;;;;;;;;-0.65;100.00;102302.03;5131470;27;20038;-48
2023/03/02 03:09:25;;;;;;;47.67;21.13;;;;;;;-0.63;100.00;102310.66;5128079;27;19934;-50
2023/03/02 03:11:56;;;;;;;50.05;22.02;;;;;;;-0.56;100.00;102306.38;5130479;27;20093;-50
2023/03/02 03:14:28;;;;;;;56.03;23.20;;;;;;;-0.58;100.00;102308.13;5129752;27;20034;-48
2023/03/02 03:16:56;;;;;;;52.83;22.13;;;;;;;-0.62;100.00;102309.81;5122561;27;20494;-47
2023/03/02 03:19:27;;;;;;;49.90;21.30;;;;;;;-0.63;100.00;102309.81;5128065;27;20049;-49
2023/03/02 03:21:58;;;;;;;52.30;23.38;;;;;;;-0.63;100.00;102302.91;5126472;27;20047;-48
2023/03/02 03:24:28;;;;;;;45.90;20.63;;;;;;;-0.63;100.00;102297.72;5131843;27;20062;-49
2023/03/02 03:26:58;;;;;;;47.13;21.92;;;;;;;-0.65;100.00;102290.84;5132052;27;20051;-49
2023/03/02 03:29:30;;;;;;;45.20;20.95;;;;;;;-0.66;100.00;102294.28;5117572;27;20043;-49
2023/03/02 03:31:59;;;;;;;47.95;21.60;;;;;;;-0.74;100.00;102296.81;5123313;27;20044;-48
2023/03/02 03:34:29;;;;;;;43.97;20.75;;;;;;;-0.76;100.00;102299.41;5125294;27;20043;-51
2023/03/02 03:37:00;;;;;;;43.90;19.90;;;;;;;-0.77;100.00;102302.00;5125842;27;20819;-51
2023/03/02 03:39:30;;;;;;;46.30;20.33;;;;;;;-0.74;100.00;102309.75;5119441;27;20409;-47
2023/03/02 03:41:59;;;;;;;49.50;20.33;;;;;;;-0.79;100.00;102301.97;5129016;27;20043;-50
2023/03/02 03:44:28;;;;;;;49.97;23.92;;;;;;;-0.81;100.00;102302.81;5128252;27;20043;-52
2023/03/02 03:46:56;;;;;;;48.88;22.17;;;;;;;-0.83;100.00;102308.00;5128491;27;20053;-50
2023/03/02 03:49:24;;;;;;;49.90;21.67;;;;;;;-0.87;100.00;102303.66;5129762;27;20378;-51
2023/03/02 03:51:55;;;;;;;49.47;22.02;;;;;;;-0.90;100.00;102303.63;5129314;27;20505;-47
2023/03/02 03:54:24;;;;;;;50.95;22.20;;;;;;;-0.91;100.00;102302.75;5128612;27;20047;-51
2023/03/02 03:56:52;;;;;;;54.67;23.45;;;;;;;-0.92;100.00;102303.63;5128218;27;20041;-50
2023/03/02 03:59:25;;;;;;;51.25;22.08;;;;;;;-0.88;100.00;102302.78;5115092;27;20505;-50
2023/03/02 04:01:56;;;;;;;51.85;22.45;;;;;;;-0.97;100.00;102300.13;5126216;27;20023;-48
2023/03/02 04:04:26;;;;;;;49.45;21.60;;;;;;;-1.02;100.00;102294.94;5129516;27;20043;-50
2023/03/02 04:06:55;;;;;;;53.75;21.85;;;;;;;-0.98;100.00;102302.72;5130656;27;20064;-48
2023/03/02 04:09:24;;;;;;;52.58;24.88;;;;;;;-1.02;100.00;102302.69;5128807;27;20391;-51
2023/03/02 04:11:54;;;;;;;50.72;22.00;;;;;;;-1.01;100.00;102311.31;5125447;27;20051;-48
2023/03/02 04:14:25;;;;;;;54.75;22.73;;;;;;;-1.03;100.00;102302.69;5127243;27;20067;-46
2023/03/02 04:16:53;;;;;;;55.45;22.65;;;;;;;-1.08;100.00;102304.38;5131277;27;20035;-47
2023/03/02 04:19:22;;;;;;;52.28;22.90;;;;;;;-1.05;100.00;102300.09;5134033;27;20505;-50
2023/03/02 04:21:54;;;;;;;55.00;23.27;;;;;;;-1.09;100.00;102302.63;5131059;27;20047;-50
2023/03/02 04:24:23;;;;;;;52.83;22.55;;;;;;;-1.10;100.00;102312.13;5129081;27;20058;-47
2023/03/02 04:26:51;;;;;;;53.38;23.55;;;;;;;-1.10;100.00;102311.25;5131731;27;20088;-48
2023/03/02 04:29:20;;;;;;;54.15;24.17;;;;;;;-1.17;100.00;102315.50;5130974;27;20520;-50
2023/03/02 04:31:52;;;;;;;60.90;24.05;;;;;;;-1.17;100.00;102310.34;5129127;27;20035;-47
2023/03/02 04:34:22;;;;;;;62.60;23.73;;;;;;;-1.22;100.00;102310.31;5130440;27;20446;-48
2023/03/02 04:36:50;;;;;;;54.17;21.98;;;;;;;-1.23;100.00;102308.59;5129433;27;20522;-51
2023/03/02 04:39:19;;;;;;;54.05;22.77;;;;;;;-1.24;100.00;102314.59;5131371;27;20096;-48
2023/03/02 04:41:48;;;;;;;59.15;23.73;;;;;;;-1.16;100.00;102306.91;5130143;27;20062;-51
2023/03/02 04:44:17;;;;;;;57.15;22.67;;;;;;;-1.15;100.00;102305.19;5130821;27;20134;-49
2023/03/02 04:46:46;;;;;;;51.95;21.75;;;;;;;-1.17;100.00;102315.50;5116123;27;20046;-50
2023/03/02 04:49:17;;;;;;;50.10;21.98;;;;;;;-1.12;100.00;102308.66;5122236;27;20547;-51
2023/03/02 04:51:47;;;;;;;52.75;22.35;;;;;;;-1.20;100.00;102308.59;5131538;27;20114;-49
2023/03/02 04:54:17;;;;;;;54.75;22.55;;;;;;;-1.22;100.00;102310.31;5130222;27;20390;-49
2023/03/02 04:56:50;;;;;;;49.42;20.25;;;;;;;-1.19;100.00;102304.28;5120652;28;20838;-51
2023/03/02 04:59:21;;;;;;;49.13;21.83;;;;;;;-1.21;100.00;102304.28;5122459;27;20043;-48
2023/03/02 05:01:50;;;;;;;54.25;22.70;;;;;;;-1.19;100.00;102301.72;5119645;28;20055;-49
2023/03/02 05:04:19;;;;;;;51.17;22.30;;;;;;;-1.22;100.00;102305.13;5123130;28;20402;-51
2023/03/02 05:06:47;;;;;;;53.20;22.88;;;;;;;-1.25;100.00;102297.38;5126215;28;20059;-48
2023/03/02 05:09:16;;;;;;;47.53;21.05;;;;;;;-1.26;100.00;102298.22;5127089;27;20059;-46
2023/03/02 05:11:44;;;;;;;48.17;21.20;;;;;;;-1.18;100.00;102300.00;5123064;28;20032;-47
2023/03/02 05:14:13;;;;;;;54.78;21.83;;;;;;;-1.24;100.00;102299.13;5113071;28;20044;-50
2023/03/02 05:16:41;;;;;;;49.20;21.55;;;;;;;-1.26;100.00;102294.78;5116728;28;20042;-51
2023/03/02 05:19:11;;;;;;;50.92;20.55;;;;;;;-1.29;100.00;102295.63;5118191;27;20439;-48
2023/03/02 05:21:41;;;;;;;49.92;20.48;;;;;;;-1.31;100.00;102293.88;5128262;27;20039;-50
2023/03/02 05:24:13;;;;;;;49.53;20.65;;;;;;;-1.29;100.00;102294.78;5133364;27;20039;-47
2023/03/02 05:26:41;;;;;;;44.67;19.10;;;;;;;-1.25;100.00;102289.63;5133605;27;20035;-49
2023/03/02 05:29:09;;;;;;;50.78;22.52;;;;;;;-1.33;100.00;102287.84;5126347;27;20470;-49
2023/03/02 05:31:40;;;;;;;51.00;21.60;;;;;;;-1.37;100.00;102285.22;5130603;27;20043;-48
2023/03/02 05:34:10;;;;;;;48.53;21.50;;;;;;;-1.35;100.00;102292.97;5127454;27;20516;-47
2023/03/02 05:36:39;;;;;;;51.65;21.90;;;;;;;-1.36;100.00;102286.13;5137015;27;20039;-47
2023/03/02 05:39:09;;;;;;;47.72;20.48;;;;;;;-1.39;100.00;102291.22;5127361;27;20520;-50
2023/03/02 05:41:38;;;;;;;50.53;20.45;;;;;;;-1.41;100.00;102288.66;5126514;27;20043;-51
2023/03/02 05:44:10;;;;;;;48.10;21.05;;;;;;;-1.41;100.00;102288.66;5135183;27;20453;-50
2023/03/02 05:46:38;;;;;;;;;;;;;;;-1.43;100.00;102286.91;5122855;27;20050;-49
2023/03/02 05:49:07;;;;;;;50.60;21.60;;;;;;;-1.47;100.00;102287.72;5133589;27;19919;-47
2023/03/02 05:51:35;;;;;;;54.08;21.90;;;;;;;-1.50;100.00;102282.53;5128236;27;20043;-50
2023/03/02 05:54:03;;;;;;;51.60;21.13;;;;;;;-1.52;100.00;102292.88;5128138;27;20039;-48
2023/03/02 05:56:32;;;;;;;51.90;21.65;;;;;;;-1.49;100.00;102284.28;5129284;27;20124;-48
2023/03/02 05:59:01;;;;;;;50.03;21.02;;;;;;;-1.47;100.00;102285.16;5125953;27;20516;-51
2023/03/02 06:01:29;;;;;;;55.42;21.90;;;;;;;-1.52;100.00;102282.53;5133251;27;20152;-48
2023/03/02 06:03:57;;;;;;;44.97;20.50;;;;;;;-1.51;100.00;102288.56;5127489;27;21018;-49
2023/03/02 06:06:25;;;;;;;52.60;21.98;;;;;;;-1.55;100.00;102288.53;5126083;27;20082;-49
2023/03/02 06:08:54;;;;;;;48.90;21.65;;;;;;;-1.54;100.00;102292.84;5121301;27;20062;-51
2023/03/02 06:11:25;;;;;;;54.30;22.00;;;;;;;-1.57;100.00;102287.69;5120418;27;20100;-47
2023/03/02 06:13:54;;;;;;;52.80;21.35;;;;;;;-1.57;100.00;102287.69;5132550;27;20039;-48
2023/03/02 06:16:22;;;;;;;60.47;21.73;;;;;;;-1.50;100.00;102298.03;5124317;27;20058;-52
2023/03/02 06:18:50;;;;;;;50.47;20.13;;;;;;;-1.62;100.00;102286.75;5123526;27;20401;-49
2023/03/02 06:21:19;;;;;;;53.63;20.88;;;;;;;-1.60;100.00;102289.34;5129248;27;20389;-48
2023/03/02 06:23:47;;;;;;;50.30;20.92;;;;;;;-1.63;100.00;102300.50;5136385;27;20503;-52
2023/03/02 06:26:15;;;;;;;53.65;21.33;;;;;;;-1.66;100.00;102300.50;5129455;27;20035;-48
2023/03/02 06:28:43;;;;;;;57.90;22.27;;;;;;;-1.67;100.00;102296.19;5131223;27;20126;-48
2023/03/02 06:31:22;;;;;;;53.97;21.90;;;;;;;-1.68;100.00;102302.19;5121764;27;20118;-49
2023/03/02 06:33:50;;;;;;;54.92;22.75;;;;;;;-1.66;100.00;102307.34;5129952;27;20035;-46
2023/03/02 06:36:19;;;;;;;47.80;20.90;;;;;;;-1.70;100.00;102303.91;5135239;27;20046;-50
2023/03/02 06:38:47;;;;;;;54.67;22.13;;;;;;;-1.65;100.00;102315.13;5132024;27;20120;-48
2023/03/02 06:41:15;;;;;;;53.45;22.23;;;;;;;-1.67;100.00;102308.22;5131169;27;20081;-49
2023/03/02 06:43:44;;;;;;;51.83;21.52;;;;;;;-1.66;100.00;102315.97;5132097;27;20043;-48
2023/03/02 06:46:12;;;;;;;56.60;22.90;;;;;;;-1.70;100.00;102312.50;5129598;27;20386;-49
2023/03/02 06:48:42;;;;;;;56.28;24.00;;;;;;;-1.67;100.00;102313.38;5133371;27;20100;-48
2023/03/02 06:51:11;;;;;;;50.58;20.08;;;;;;;-1.64;100.00;102313.41;5134578;27;20049;-50
2023/03/02 06:53:39;;;;;;;51.40;21.73;;;;;;;-1.55;100.00;102321.22;5129893;27;20045;-48
2023/03/02 06:56:07;;;;;;;50.22;22.30;;;;;;;-1.57;100.00;102318.63;5134791;27;20066;-47
2023/03/02 06:58:36;;;;;;;48.78;21.23;;;;;;;-1.60;100.00;102328.06;5132056;27;20071;-49
2023/03/02 07:01:06;;;;;;;49.97;20.15;;;;;;;-1.58;100.00;102319.47;5132204;27;20143;-52
2023/03/02 07:03:35;;;;;;;51.63;19.67;;;;;;;-1.51;100.00;102327.25;5131844;27;20085;-50
2023/03/02 07:06:05;;;;;;;48.22;20.35;;;;;;;-1.43;100.00;102326.50;5130436;27;20067;-49
2023/03/02 07:08:34;;;;;;;50.83;21.15;;;;;;;-1.38;100.00;102331.69;5133891;27;20043;-47
2023/03/02 07:11:06;;;;;;;54.78;21.05;;;;;;;-1.40;100.00;102334.25;5131894;27;20062;-47
2023/03/02 07:13:36;;;;;;;48.70;19.70;;;;;;;-1.34;100.00;102319.69;5132048;27;20135;-51
2023/03/02 07:16:09;;;;;;;49.03;21.40;;;;;;;-1.38;100.00;102318.78;5131660;27;20053;-49
2023/03/02 07:18:38;;;;;;;54.70;21.88;;;;;;;-1.38;100.00;102322.25;5131268;27;20047;-47
2023/03/02 07:21:08;;;;;;;50.50;20.48;;;;;;;-1.32;100.00;102326.59;5133101;27;20131;-51
2023/03/02 07:23:36;;;;;;;48.30;20.88;;;;;;;-1.27;100.00;102330.06;5110892;28;20126;-49
2023/03/02 07:26:07;;;;;;;52.53;20.85;;;;;;;-1.20;100.00;102323.22;5111728;28;20498;-51
2023/03/02 07:28:38;;;;;;;53.95;20.20;;;;;;;-1.16;100.00;102331.84;5125278;27;20119;-49
2023/03/02 07:31:09;;;;;;;52.85;20.65;;;;;;;-1.12;100.00;102329.31;5128306;27;20126;-48
2023/03/02 07:33:39;;;;;;;54.28;20.88;;;;;;;-1.04;100.00;102325.09;5129440;27;20039;-50
2023/03/02 07:36:10;;;;;;;51.92;19.95;;;;;;;-0.92;100.00;102320.84;5116582;27;20508;-50
2023/03/02 07:38:39;;;;;;;53.63;21.50;;;;;;;-0.84;100.00;102321.75;5134795;27;20410;-51
2023/03/02 07:41:08;;;;;;;50.63;20.48;;;;;;;-0.80;100.00;102322.66;5131225;27;20100;-48
2023/03/02 07:43:36;;;;;;;55.33;19.95;;;;;;;-0.74;100.00;102317.50;5128857;27;20054;-48
2023/03/02 07:46:05;;;;;;;54.47;21.23;;;;;;;-0.69;100.00;102320.97;5129182;27;20417;-50
2023/03/02 07:48:34;;;;;;;48.15;19.25;;;;;;;-0.55;100.00;102318.47;5131097;27;20047;-49
2023/03/02 07:51:04;;;;;;;51.53;19.42;;;;;;;-0.41;100.00;102318.50;5127425;27;20046;-50
2023/03/02 07:53:34;;;;;;;47.97;19.08;;;;;;;-0.35;100.00;102329.75;5119416;27;20067;-47
2023/03/02 07:56:07;;;;;;;42.13;18.17;;;;;;;-0.11;100.00;102317.78;5124230;27;20487;-47
2023/03/02 07:58:35;;;;;;;45.85;20.17;;;;;;;-0.19;100.00;102328.09;5132974;27;20039;-48
2023/03/02 08:01:04;;;;;;;50.35;19.90;;;;;;;-0.18;100.00;102331.53;5129205;27;20070;-49
2023/03/02 08:03:33;;;;;;;43.85;18.52;;;;;;;-0.06;100.00;102328.13;5129749;27;20478;-49
2023/03/02 08:06:05;;;;;;;46.17;18.42;;;;;;;0.10;100.00;102334.22;5131062;27;20051;-52
2023/03/02 08:08:35;;;;;;;46.00;18.98;;;;;;;0.34;100.00;102335.97;5122534;27;20096;-52
2023/03/02 08:11:07;;;;;;;48.30;18.92;;;;;;;0.35;100.00;102329.94;5120208;27;20040;-49
2023/03/02 08:13:36;;;;;;;43.00;18.58;;;;;;;0.60;100.00;102328.25;5117226;27;20067;-51
2023/03/02 08:16:07;;;;;;;44.25;18.65;;;;;;;0.74;100.00;102333.41;5113744;28;20131;-48
2023/03/02 08:18:36;;;;;;;45.90;17.80;;;;;;;0.88;100.00;102337.72;5113545;28;20056;-48
2023/03/02 08:21:05;;;;;;;46.92;19.05;;;;;;;1.00;100.00;102322.16;5112253;28;20047;-48
2023/03/02 08:23:37;;;;;;;41.88;18.08;;;;;;;1.20;100.00;102323.84;5113617;28;20043;-49
2023/03/02 08:26:08;;;;;;;42.63;18.87;;;;;;;0.96;100.00;102328.22;5127024;27;20528;-53
2023/03/02 08:28:41;;;;;;;42.03;17.25;;;;;;;1.24;100.00;102320.38;5130248;27;20125;-51
2023/03/02 08:31:09;;;;;;;41.13;18.42;;;;;;;1.51;100.00;102325.50;5129551;27;20039;-50
2023/03/02 08:33:38;;;;;;;38.60;16.85;;;;;;;1.34;100.00;102319.50;5132445;27;20042;-51
2023/03/02 08:36:08;;;;;;;44.70;17.40;;;;;;;1.40;100.00;102324.66;5133914;27;20107;-50
2023/03/02 08:38:38;;;;;;;38.58;17.58;;;;;;;1.44;100.00;102330.69;5133724;27;20103;-51
2023/03/02 08:41:10;;;;;;;45.75;19.20;;;;;;;1.73;100.00;102335.75;5133551;27;20615;-49
2023/03/02 08:43:38;;;;;;;41.55;19.05;;;;;;;2.13;100.00;102339.91;5130427;27;20091;-49
2023/03/02 08:46:07;;;;;;;40.92;18.27;;;;;;;1.99;100.00;102327.00;5131465;27;20051;-52
2023/03/02 08:48:35;;;;;;;41.20;18.02;;;;;;;1.96;100.00;102325.25;5113189;28;20113;-53
2023/03/02 08:51:05;;;;;;;40.67;18.83;;;;;;;1.94;100.00;102340.00;5111793;28;20044;-51
2023/03/02 08:53:35;;;;;;;44.33;17.70;;;;;;;2.32;100.00;102335.47;5112203;28;20047;-49
2023/03/02 08:56:14;;;;;;;46.83;18.38;;;;;;;2.32;100.00;102325.06;5112980;28;20108;-52
2023/03/02 08:58:43;;;;;;;45.05;19.05;;;;;;;2.23;100.00;102322.53;5113063;28;20112;-51
2023/03/02 09:01:15;;;;;;;38.90;16.92;;;;;;;2.40;100.00;102318.09;5112642;28;20043;-48
2023/03/02 09:03:46;;;;;;;43.65;17.88;;;;;;;2.44;100.00;102324.09;5109241;28;20036;-51
2023/03/02 09:06:15;;;;;;;39.88;18.30;;;;;;;2.59;100.00;102317.94;5112844;28;20055;-50
2023/03/02 09:08:45;;;;;;;47.40;17.73;;;;;;;2.52;100.00;102320.59;5133753;27;20569;-49
2023/03/02 09:11:16;;;;;;;36.45;15.38;;;;;;;2.69;100.00;102329.97;5132927;27;20092;-50
2023/03/02 09:13:44;;;;;;;39.47;17.50;;;;;;;2.59;100.00;102330.91;5133268;27;20397;-51
2023/03/02 09:16:16;;;;;;;40.60;17.13;;;;;;;2.67;100.00;102329.13;5133283;28;20043;-50
2023/03/02 09:18:44;;;;;;;41.50;18.50;;;;;;;2.67;100.00;102329.13;5132403;27;20051;-49
2023/03/02 09:21:13;;;;;;;39.08;17.50;;;;;;;2.94;100.00;102329.75;5119300;27;20475;-52
2023/03/02 09:23:44;;;;;;;37.78;16.98;;;;;;;2.98;100.00;102331.44;5117070;28;20046;-51
2023/03/02 09:26:13;;;;;;;39.15;16.70;;;;;;;2.69;100.00;102337.78;5121715;28;20071;-51
2023/03/02 09:28:42;;;;;;;40.47;16.60;;;;;;;2.74;100.00;102332.53;5121515;28;20367;-51
2023/03/02 09:31:11;;;;;;;41.63;16.83;;;;;;;3.00;100.00;102327.09;5123212;28;20158;-50
2023/03/02 09:33:40;;;;;;;38.63;16.95;;;;;;;3.08;100.00;102330.50;5123619;28;20050;-52
2023/03/02 09:36:11;;;;;;;39.80;16.55;;;;;;;3.29;100.00;102333.75;5125060;27;20052;-51
2023/03/02 09:38:42;;;;;;;38.83;16.38;;;;;;;3.10;100.00;102328.72;5118937;28;20047;-52
2023/03/02 09:41:41;;;;;;;39.45;18.45;;;;;;;3.20;100.00;102327.78;5117890;27;20039;-48
2023/03/02 09:44:30;;;;;;;38.25;17.00;;;;;;;3.45;100.00;102324.91;5120965;28;20039;-53
2023/03/02 09:47:02;;;;;;;37.05;16.58;;;;;;;3.55;100.00;102331.69;5116567;28;20109;-51
2023/03/02 09:49:39;;;;;;;;;;;;;;;3.62;100.00;102331.63;5124031;27;20051;-49
2023/03/02 09:52:28;;;;;;;36.70;16.20;;;;;;;3.87;100.00;102343.47;5118002;28;20014;-52
2023/03/02 09:55:00;;;;;;;36.63;15.85;;;;;;;4.05;100.00;102349.31;5118153;28;20058;-51
2023/03/02 09:57:34;;;;;;;35.78;16.70;;;;;;;3.85;100.00;102346.97;5118654;28;20437;-53
2023/03/02 10:00:08;;;;;;;35.50;16.15;;;;;;;3.83;100.00;102344.38;5124257;28;20118;-48
2023/03/02 10:02:48;;;;;;;37.63;17.00;;;;;;;4.09;100.00;102337.09;5117441;28;20078;-53
2023/03/02 10:05:22;;;;;;;39.00;17.42;;;;;;;4.31;100.00;102328.09;5121508;27;20081;-49
2023/03/02 10:07:50;;;;;;;31.58;15.57;;;;;;;4.52;100.00;102321.66;5127936;27;20036;-52
2023/03/02 10:10:25;;;;;;;32.63;14.80;;;;;;;4.67;100.00;102317.09;5125204;27;20047;-51
2023/03/02 10:13:05;;;;;;;34.13;15.60;;;;;;;4.81;100.00;102330.72;5123419;27;20054;-49
2023/03/02 10:15:41;;;;;;;32.45;15.02;;;;;;;4.96;100.00;102318.34;5129763;27;20066;-51
2023/03/02 10:18:20;;;;;;;30.67;15.15;;;;;;;5.05;100.00;102316.41;5126202;27;20045;-53
2023/03/02 10:20:54;;;;;;;31.58;14.32;;;;;;;5.25;100.00;102317.81;5121472;27;20182;-49
2023/03/02 10:23:45;;;;;;;27.85;13.88;;;;;;;5.31;100.00;102327.25;5127205;27;20108;-47
2023/03/02 10:26:30;;;;;;;30.05;13.50;;;;;;;5.54;100.00;102314.59;5126021;27;20047;-48
2023/03/02 10:29:04;;;;;;;28.80;14.60;;;;;;;5.75;100.00;102310.69;5127608;27;20043;-48
2023/03/02 10:31:34;;;;;;;28.77;14.00;;;;;;;5.89;100.00;102314.72;5121614;27;20539;-48
2023/03/02 10:34:02;;;;;;;25.90;12.75;;;;;;;6.08;100.00;102316.09;5127366;27;20918;-50
2023/03/02 10:36:35;;;;;;;27.38;13.82;;;;;;;6.35;100.00;102313.69;5122946;27;20047;-50
2023/03/02 10:39:12;;;;;;;27.23;13.45;;;;;;;6.74;100.00;102311.00;5122215;27;20604;-49
2023/03/02 10:41:44;;;;;;;27.52;13.45;;;;;;;6.70;100.00;102316.38;5121821;27;20554;-51
2023/03/02 10:44:16;;;;;;;;;;;;;;;6.89;100.00;102314.13;5127411;27;20039;-50
2023/03/02 10:46:46;;;;;;;27.75;12.50;;;;;;;7.04;100.00;102311.09;5125888;27;19942;-50
2023/03/02 10:49:25;;;;;;;25.88;12.43;;;;;;;7.21;100.00;102312.41;5122201;27;20930;-52
2023/03/02 10:51:59;;;;;;;26.85;13.18;;;;;;;7.55;100.00;102307.09;5129778;27;20394;-49
2023/03/02 10:54:28;;;;;;;24.73;13.05;;;;;;;7.49;100.00;102306.41;5123779;27;20047;-51
2023/03/02 10:57:00;;;;;;;27.45;13.93;;;;;;;7.50;100.00;102302.88;5124536;27;20054;-50
2023/03/02 10:59:42;;;;;;;24.30;13.02;;;;;;;7.57;100.00;102302.66;5126915;27;20047;-47
2023/03/02 11:02:17;;;;;;;24.25;12.45;;;;;;;7.95;100.00;102305.88;5125724;27;20032;-49
2023/03/02 11:04:47;;;;;;;24.77;12.25;;;;;;;8.44;100.00;102303.47;5126678;27;20421;-51
2023/03/02 11:07:18;;;;;;;24.48;12.20;;;;;;;8.55;100.00;102295.28;5124081;27;20058;-48
2023/03/02 11:10:00;;;;;;;23.38;12.88;;;;;;;8.75;100.00;102286.72;5127691;27;20055;-51
2023/03/02 11:12:33;;;;;;;28.05;13.13;;;;;;;8.85;100.00;102276.78;5124623;27;20063;-50
2023/03/02 11:15:13;;;;;;;21.75;11.73;;;;;;;8.92;100.00;102274.78;5119849;27;20047;-48
2023/03/02 11:17:45;;;;;;;23.58;12.45;;;;;;;9.23;100.00;102268.41;5125002;27;20035;-50
2023/03/02 11:20:17;;;;;;;23.98;12.38;;;;;;;9.48;100.00;102274.47;5122886;27;20553;-49
2023/03/02 11:22:54;;;;;;;20.65;11.38;;;;;;;9.46;100.00;102272.81;5123626;27;20512;-49